Time;durP1;ratioP1;P1;durP2;ratioP2;P2;SDS_P1;SDS_P2;PMS_P1;PMS_P2;Temp;Humidity;BMP_temperature;BMP_pressure;BME280_temperature;BME280_humidity;BME280_pressure;Samples;Min_cycle;Max_cycle;Signal;HPM_P1;HPM_P2
2021/04/29 00:01:40;;;;;;;;;;;;;;;;;;4973134;28;19957;-54
2021/04/29 00:04:05;;;;;;;;;;;;;;;;;;4966833;28;19910;-54
2021/04/29 00:06:30;;;;;;;;;;;;;;;;;;4973184;28;19917;-52
2021/04/29 00:08:56;;;;;;;;;;;;;;;;;;4974632;28;19932;-55
2021/04/29 00:11:21;;;;;;;;;;;;;;;;;;4956593;28;19910;-53
2021/04/29 00:13:46;;;;;;;;;;;;;;;;;;4972422;28;20385;-57
2021/04/29 00:16:11;;;;;;;;;;;;;;;;;;4972568;28;19910;-55
2021/04/29 00:18:36;;;;;;;;;;;;;;;;;;4972952;28;19910;-51
2021/04/29 00:21:02;;;;;;;;;;;;;;;;;;4974103;28;19990;-55
2021/04/29 00:23:27;;;;;;;;;;;;;;;;;;4972871;28;19910;-55
2021/04/29 00:25:52;;;;;;;;;;;;;;;;;;4970297;28;19916;-54
2021/04/29 00:28:17;;;;;;;;;;;;;;;;;;4954195;29;19918;-55
2021/04/29 00:30:43;;;;;;;;;;;;;;;;;;4957526;28;20353;-55
2021/04/29 00:33:08;;;;;;;;;;;;;;;;;;4972114;28;19914;-54
2021/04/29 00:35:33;;;;;;;;;;;;;;;;;;4959276;28;19959;-54
2021/04/29 00:37:58;;;;;;;;;;;;;;;;;;4963542;28;20366;-54
2021/04/29 00:40:24;;;;;;;;;;;;;;;;;;4973651;28;19933;-53
2021/04/29 00:42:49;;;;;;;;;;;;;;;;;;4973458;28;19964;-55
2021/04/29 00:45:14;;;;;;;;;;;;;;;;;;4973252;28;20001;-54
2021/04/29 00:47:39;;;;;;;;;;;;;;;;;;4973887;28;20376;-55
2021/04/29 00:50:05;;;;;;;;;;;;;;;;;;4971605;28;19913;-56
2021/04/29 00:52:30;;;;;;;;;;;;;;;;;;4955715;28;20282;-54
2021/04/29 00:54:55;;;;;;;;;;;;;;;;;;4973088;28;19914;-51
2021/04/29 00:57:20;;;;;;;;;;;;;;;;;;4971291;28;19941;-57
2021/04/29 00:59:45;;;;;;;;;;;;;;;;;;4972045;28;19996;-54
2021/04/29 01:02:11;;;;;;;;;;;;;;;;;;4971698;28;20012;-55
2021/04/29 01:04:36;;;;;;;;;;;;;;;;;;4966382;28;19914;-55
2021/04/29 01:07:01;;;;;;;;;;;;;;;;;;4937237;29;19982;-56
2021/04/29 01:09:26;;;;;;;;;;;;;;;;;;4956331;28;19906;-53
2021/04/29 01:11:52;;;;;;;;;;;;;;;;;;4963622;28;20334;-55
2021/04/29 01:14:17;;;;;;;;;;;;;;;;;;4971496;28;20403;-55
2021/04/29 01:16:42;;;;;;;;;;;;;;;;;;4972145;28;19913;-54
2021/04/29 01:19:07;;;;;;;;;;;;;;;;;;4973006;28;19981;-54
2021/04/29 01:21:33;;;;;;;;;;;;;;;;;;4969187;28;19918;-52
2021/04/29 01:23:58;;;;;;;;;;;;;;;;;;4953928;29;19910;-55
2021/04/29 01:26:23;;;;;;;;;;;;;;;;;;4953785;28;19914;-55
2021/04/29 01:28:48;;;;;;;;;;;;;;;;;;4952439;29;19919;-55
2021/04/29 01:31:14;;;;;;;;;;;;;;;;;;4952268;29;19917;-56
2021/04/29 01:33:39;;;;;;;;;;;;;;;;;;4952628;29;19911;-55
2021/04/29 01:36:04;;;;;;;;;;;;;;;;;;4952976;29;19922;-55
2021/04/29 01:38:29;;;;;;;;;;;;;;;;;;4953669;29;19915;-53
2021/04/29 01:40:55;;;;;;;;;;;;;;;;;;4953151;28;20338;-56
2021/04/29 01:43:20;;;;;;;;;;;;;;;;;;4972391;28;19910;-56
2021/04/29 01:45:45;;;;;;;;;;;;;;;;;;4973042;28;19910;-56
2021/04/29 01:48:10;;;;;;;;;;;;;;;;;;4954444;28;20409;-54
2021/04/29 01:50:35;;;;;;;;;;;;;;;;;;4953701;29;20334;-54
2021/04/29 01:53:01;;;;;;;;;;;;;;;;;;4952677;29;19929;-56
2021/04/29 01:55:26;;;;;;;;;;;;;;;;;;4952166;29;20379;-56
2021/04/29 01:57:51;;;;;;;;;;;;;;;;;;4936191;29;19917;-56
2021/04/29 02:00:16;;;;;;;;;;;;;;;;;;4963893;28;19965;-56
2021/04/29 02:02:42;;;;;;;;;;;;;;;;;;4972753;28;19910;-55
2021/04/29 02:05:07;;;;;;;;;;;;;;;;;;4971741;28;20278;-54
2021/04/29 02:07:32;;;;;;;;;;;;;;;;;;4974753;28;19961;-55
2021/04/29 02:09:57;;;;;;;;;;;;;;;;;;4975259;28;20358;-56
2021/04/29 02:12:23;;;;;;;;;;;;;;;;;;4975898;28;19960;-54
2021/04/29 02:14:48;;;;;;;;;;;;;;;;;;4976478;28;20017;-55
2021/04/29 02:17:13;;;;;;;;;;;;;;;;;;4976039;28;19918;-56
2021/04/29 02:19:38;;;;;;;;;;;;;;;;;;4958814;28;19914;-53
2021/04/29 02:22:04;;;;;;;;;;;;;;;;;;4975038;28;19914;-54
2021/04/29 02:24:29;;;;;;;;;;;;;;;;;;4974815;28;20048;-56
2021/04/29 02:26:54;;;;;;;;;;;;;;;;;;4974681;28;20250;-55
2021/04/29 02:29:19;;;;;;;;;;;;;;;;;;4976121;28;19988;-53
2021/04/29 02:31:45;;;;;;;;;;;;;;;;;;4971524;28;20350;-55
2021/04/29 02:34:10;;;;;;;;;;;;;;;;;;4956615;29;20382;-53
2021/04/29 02:36:35;;;;;;;;;;;;;;;;;;4956297;29;19921;-54
2021/04/29 02:39:00;;;;;;;;;;;;;;;;;;4956902;28;19941;-56
2021/04/29 02:41:26;;;;;;;;;;;;;;;;;;4956269;29;19911;-54
2021/04/29 02:43:51;;;;;;;;;;;;;;;;;;4939201;29;19910;-56
2021/04/29 02:46:16;;;;;;;;;;;;;;;;;;4954947;29;19910;-56
2021/04/29 02:48:41;;;;;;;;;;;;;;;;;;4955270;29;20359;-55
2021/04/29 02:51:07;;;;;;;;;;;;;;;;;;4956482;29;20354;-55
2021/04/29 02:53:32;;;;;;;;;;;;;;;;;;4954706;29;19929;-53
2021/04/29 02:55:57;;;;;;;;;;;;;;;;;;4939374;29;20326;-54
2021/04/29 02:58:22;;;;;;;;;;;;;;;;;;4955710;29;20302;-55
2021/04/29 03:00:48;;;;;;;;;;;;;;;;;;4956314;29;19917;-53
2021/04/29 03:03:13;;;;;;;;;;;;;;;;;;4956004;29;19914;-54
2021/04/29 03:05:38;;;;;;;;;;;;;;;;;;4955822;29;19966;-52
2021/04/29 03:08:04;;;;;;;;;;;;;;;;;;4954937;29;19924;-55
2021/04/29 03:10:30;;;;;;;;;;;;;;;;;;4954437;29;20389;-54
2021/04/29 03:12:55;;;;;;;;;;;;;;;;;;4956075;28;20008;-56
2021/04/29 03:15:20;;;;;;;;;;;;;;;;;;4955360;29;19950;-54
2021/04/29 03:17:45;;;;;;;;;;;;;;;;;;4955266;28;19965;-55
2021/04/29 03:20:11;;;;;;;;;;;;;;;;;;4956696;29;19914;-53
2021/04/29 03:22:36;;;;;;;;;;;;;;;;;;4954434;29;19910;-54
2021/04/29 03:25:01;;;;;;;;;;;;;;;;;;4955968;29;20012;-57
2021/04/29 03:27:26;;;;;;;;;;;;;;;;;;4954917;29;20250;-56
2021/04/29 03:29:52;;;;;;;;;;;;;;;;;;4938512;29;19910;-54
2021/04/29 03:32:17;;;;;;;;;;;;;;;;;;4955573;29;20049;-51
2021/04/29 03:34:42;;;;;;;;;;;;;;;;;;4955555;29;20374;-53
2021/04/29 03:37:07;;;;;;;;;;;;;;;;;;4956132;29;20271;-54
2021/04/29 03:39:32;;;;;;;;;;;;;;;;;;4955487;28;20414;-54
2021/04/29 03:41:58;;;;;;;;;;;;;;;;;;4955668;29;20400;-55
2021/04/29 03:44:23;;;;;;;;;;;;;;;;;;4955068;29;19921;-56
2021/04/29 03:46:48;;;;;;;;;;;;;;;;;;4954006;29;19910;-54
2021/04/29 03:49:13;;;;;;;;;;;;;;;;;;4955064;29;19965;-56
2021/04/29 03:51:39;;;;;;;;;;;;;;;;;;4957363;28;20285;-55
2021/04/29 03:54:04;;;;;;;;;;;;;;;;;;4974075;28;20396;-53
2021/04/29 03:56:29;;;;;;;;;;;;;;;;;;4973471;28;20382;-52
2021/04/29 03:58:54;;;;;;;;;;;;;;;;;;4971212;28;19957;-57
2021/04/29 04:01:20;;;;;;;;;;;;;;;;;;4967782;28;20376;-54
2021/04/29 04:03:45;;;;;;;;;;;;;;;;;;4973929;28;19914;-54
2021/04/29 04:06:12;;;;;;;;;;;;;;;;;;4974349;28;19937;-54
2021/04/29 04:08:37;;;;;;;;;;;;;;;;;;4973902;28;19913;-53
2021/04/29 04:11:02;;;;;;;;;;;;;;;;;;4973620;28;20440;-55
2021/04/29 04:13:27;;;;;;;;;;;;;;;;;;4959420;28;19936;-53
2021/04/29 04:15:53;;;;;;;;;;;;;;;;;;4962662;28;20409;-52
2021/04/29 04:18:18;;;;;;;;;;;;;;;;;;4954160;29;19911;-56
2021/04/29 04:20:43;;;;;;;;;;;;;;;;;;4953824;29;19932;-56
2021/04/29 04:23:08;;;;;;;;;;;;;;;;;;4971766;28;19914;-52
2021/04/29 04:25:33;;;;;;;;;;;;;;;;;;4956210;28;19918;-56
2021/04/29 04:27:59;;;;;;;;;;;;;;;;;;4973280;28;20369;-54
2021/04/29 04:30:24;;;;;;;;;;;;;;;;;;4972754;28;20446;-59
2021/04/29 04:32:49;;;;;;;;;;;;;;;;;;4956609;28;19921;-55
2021/04/29 04:35:14;;;;;;;;;;;;;;;;;;4973783;28;20357;-56
2021/04/29 04:37:40;;;;;;;;;;;;;;;;;;4973519;28;20273;-55
2021/04/29 04:40:06;;;;;;;;;;;;;;;;;;4973992;28;19910;-54
2021/04/29 04:42:31;;;;;;;;;;;;;;;;;;4973121;28;20099;-56
2021/04/29 04:44:56;;;;;;;;;;;;;;;;;;4957964;28;19910;-56
2021/04/29 04:47:21;;;;;;;;;;;;;;;;;;4953967;29;20401;-55
2021/04/29 04:49:47;;;;;;;;;;;;;;;;;;4954396;29;19992;-55
2021/04/29 04:52:12;;;;;;;;;;;;;;;;;;4953777;29;20009;-56
2021/04/29 04:54:37;;;;;;;;;;;;;;;;;;4937053;29;19914;-54
2021/04/29 04:57:02;;;;;;;;;;;;;;;;;;4961779;28;19953;-53
2021/04/29 04:59:28;;;;;;;;;;;;;;;;;;4971550;28;19910;-55
2021/04/29 05:01:54;;;;;;;;;;;;;;;;;;4971855;28;20429;-56
2021/04/29 05:04:19;;;;;;;;;;;;;;;;;;4973515;28;20425;-54
2021/04/29 05:06:44;;;;;;;;;;;;;;;;;;4973507;28;20025;-54
2021/04/29 05:09:10;;;;;;;;;;;;;;;;;;4972243;28;19969;-55
2021/04/29 05:11:35;;;;;;;;;;;;;;;;;;4972526;28;19921;-54
2021/04/29 05:14:00;;;;;;;;;;;;;;;;;;4973517;28;19922;-55
2021/04/29 05:16:25;;;;;;;;;;;;;;;;;;4971771;28;19929;-55
2021/04/29 05:18:51;;;;;;;;;;;;;;;;;;4973094;28;20005;-54
2021/04/29 05:21:16;;;;;;;;;;;;;;;;;;4972967;28;19910;-56
2021/04/29 05:23:41;;;;;;;;;;;;;;;;;;4971999;28;19910;-55
2021/04/29 05:26:06;;;;;;;;;;;;;;;;;;4973742;28;20365;-55
2021/04/29 05:28:31;;;;;;;;;;;;;;;;;;4972947;28;20298;-55
2021/04/29 05:30:57;;;;;;;;;;;;;;;;;;4972764;28;19948;-56
2021/04/29 05:33:22;;;;;;;;;;;;;;;;;;4971671;28;20258;-55
2021/04/29 05:35:47;;;;;;;;;;;;;;;;;;4972772;28;20016;-55
2021/04/29 05:38:13;;;;;;;;;;;;;;;;;;4954922;28;20285;-56
2021/04/29 05:40:39;;;;;;;;;;;;;;;;;;4972950;28;19909;-55
2021/04/29 05:43:04;;;;;;;;;;;;;;;;;;4957844;28;19961;-55
2021/04/29 05:45:29;;;;;;;;;;;;;;;;;;4974764;28;19918;-54
2021/04/29 05:47:55;;;;;;;;;;;;;;;;;;4975983;28;20004;-54
2021/04/29 05:50:20;;;;;;;;;;;;;;;;;;4975122;28;20270;-54
2021/04/29 05:52:45;;;;;;;;;;;;;;;;;;4974645;28;19910;-55
2021/04/29 05:55:10;;;;;;;;;;;;;;;;;;4976914;28;20346;-54
2021/04/29 05:57:36;;;;;;;;;;;;;;;;;;4975910;28;19918;-54
2021/04/29 06:00:01;;;;;;;;;;;;;;;;;;4976315;28;19906;-54
2021/04/29 06:02:26;;;;;;;;;;;;;;;;;;4970539;28;19914;-55
2021/04/29 06:04:51;;;;;;;;;;;;;;;;;;4975871;28;19921;-56
2021/04/29 06:07:18;;;;;;;;;;;;;;;;;;4976244;28;20036;-56
2021/04/29 06:09:43;;;;;;;;;;;;;;;;;;4975211;28;20026;-55
2021/04/29 06:12:08;;;;;;;;;;;;;;;;;;4975874;28;19954;-55
2021/04/29 06:14:33;;;;;;;;;;;;;;;;;;4974791;28;19933;-54
2021/04/29 06:16:59;;;;;;;;;;;;;;;;;;4976266;28;19961;-55
2021/04/29 06:19:24;;;;;;;;;;;;;;;;;;4974612;28;19906;-54
2021/04/29 06:21:49;;;;;;;;;;;;;;;;;;4975045;28;19941;-55
2021/04/29 06:24:14;;;;;;;;;;;;;;;;;;4976731;28;19910;-52
2021/04/29 06:26:41;;;;;;;;;;;;;;;;;;4975400;28;19921;-55
2021/04/29 06:29:06;;;;;;;;;;;;;;;;;;4969820;28;19918;-56
2021/04/29 06:31:34;;;;;;;;;;;;;;;;;;4976143;28;20384;-55
2021/04/29 06:33:59;;;;;;;;;;;;;;;;;;4976062;28;20366;-52
2021/04/29 06:36:24;;;;;;;;;;;;;;;;;;4976005;28;19914;-54
2021/04/29 06:38:49;;;;;;;;;;;;;;;;;;4975919;28;19910;-56
2021/04/29 06:41:15;;;;;;;;;;;;;;;;;;4975582;28;19950;-55
2021/04/29 06:43:40;;;;;;;;;;;;;;;;;;4973950;28;20357;-55
2021/04/29 06:46:05;;;;;;;;;;;;;;;;;;4974931;28;20357;-55
2021/04/29 06:48:30;;;;;;;;;;;;;;;;;;4973380;28;19914;-52
2021/04/29 06:50:56;;;;;;;;;;;;;;;;;;4968331;28;19910;-54
2021/04/29 06:53:21;;;;;;;;;;;;;;;;;;4955574;28;20009;-55
2021/04/29 06:55:48;;;;;;;;;;;;;;;;;;4956036;29;19933;-55
2021/04/29 06:58:13;;;;;;;;;;;;;;;;;;4973716;28;19910;-55
2021/04/29 07:00:38;;;;;;;;;;;;;;;;;;4974887;28;19957;-55
2021/04/29 07:03:03;;;;;;;;;;;;;;;;;;4975685;28;19920;-55
2021/04/29 07:05:28;;;;;;;;;;;;;;;;;;4975681;28;20417;-55
2021/04/29 07:07:54;;;;;;;;;;;;;;;;;;4974533;28;20309;-54
2021/04/29 07:10:19;;;;;;;;;;;;;;;;;;4975320;28;19916;-55
2021/04/29 07:12:44;;;;;;;;;;;;;;;;;;4974917;28;19945;-55
2021/04/29 07:15:09;;;;;;;;;;;;;;;;;;4974111;28;19925;-57
2021/04/29 07:17:35;;;;;;;;;;;;;;;;;;4974891;28;20289;-52
2021/04/29 07:20:00;;;;;;;;;;;;;;;;;;4975372;28;19910;-57
2021/04/29 07:22:25;;;;;;;;;;;;;;;;;;4975344;28;20392;-54
2021/04/29 07:24:50;;;;;;;;;;;;;;;;;;4973620;28;20000;-55
2021/04/29 07:27:16;;;;;;;;;;;;;;;;;;4975487;28;19916;-56
2021/04/29 07:29:41;;;;;;;;;;;;;;;;;;4974040;28;20374;-55
2021/04/29 07:32:06;;;;;;;;;;;;;;;;;;4974776;28;20207;-54
2021/04/29 07:34:31;;;;;;;;;;;;;;;;;;4975096;28;20247;-55
2021/04/29 07:36:57;;;;;;;;;;;;;;;;;;4973601;28;20255;-56
2021/04/29 07:39:22;;;;;;;;;;;;;;;;;;4975310;28;20357;-56
2021/04/29 07:41:47;;;;;;;;;;;;;;;;;;4973371;28;20430;-56
2021/04/29 07:44:15;;;;;;;;;;;;;;;;;;4974512;28;19914;-55
2021/04/29 07:46:40;;;;;;;;;;;;;;;;;;4973147;28;19910;-54
2021/04/29 07:49:06;;;;;;;;;;;;;;;;;;4975461;28;19917;-55
2021/04/29 07:51:32;;;;;;;;;;;;;;;;;;4969693;28;19914;-57
2021/04/29 07:53:57;;;;;;;;;;;;;;;;;;4972734;28;19914;-56
2021/04/29 07:56:22;;;;;;;;;;;;;;;;;;4952187;28;19921;-55
2021/04/29 07:58:48;;;;;;;;;;;;;;;;;;4971979;28;19911;-55
2021/04/29 08:01:13;;;;;;;;;;;;;;;;;;4973321;28;20275;-56
2021/04/29 08:03:38;;;;;;;;;;;;;;;;;;4971114;28;19917;-55
2021/04/29 08:06:03;;;;;;;;;;;;;;;;;;4971561;28;20380;-54
2021/04/29 08:08:29;;;;;;;;;;;;;;;;;;4973187;28;19925;-55
2021/04/29 08:10:54;;;;;;;;;;;;;;;;;;4969420;28;19938;-55
2021/04/29 08:13:19;;;;;;;;;;;;;;;;;;4973430;28;19914;-56
2021/04/29 08:15:45;;;;;;;;;;;;;;;;;;4972290;28;19922;-56
2021/04/29 08:18:10;;;;;;;;;;;;;;;;;;4971010;28;19914;-55
2021/04/29 08:20:35;;;;;;;;;;;;;;;;;;4971280;28;19917;-55
2021/04/29 08:23:00;;;;;;;;;;;;;;;;;;4973194;28;19914;-55
2021/04/29 08:25:26;;;;;;;;;;;;;;;;;;4972175;28;20261;-56
2021/04/29 08:27:51;;;;;;;;;;;;;;;;;;4971988;28;19965;-56
2021/04/29 08:30:16;;;;;;;;;;;;;;;;;;4971022;28;19944;-56
2021/04/29 08:32:42;;;;;;;;;;;;;;;;;;4970705;28;19925;-56
2021/04/29 08:35:08;;;;;;;;;;;;;;;;;;4972341;28;19914;-57
2021/04/29 08:37:33;;;;;;;;;;;;;;;;;;4973769;28;19910;-55
2021/04/29 08:39:58;;;;;;;;;;;;;;;;;;4956143;28;20289;-54
2021/04/29 08:42:28;;;;;;;;;;;;;;;;;;4973857;28;20009;-54
2021/04/29 08:44:53;;;;;;;;;;;;;;;;;;4972038;28;19914;-55
2021/04/29 08:47:18;;;;;;;;;;;;;;;;;;4973603;28;19964;-54
2021/04/29 08:49:44;;;;;;;;;;;;;;;;;;4972104;28;20318;-55
2021/04/29 08:52:09;;;;;;;;;;;;;;;;;;4956429;28;19964;-54
2021/04/29 08:54:36;;;;;;;;;;;;;;;;;;4972662;28;20250;-54
2021/04/29 08:57:02;;;;;;;;;;;;;;;;;;4973425;28;19966;-55
2021/04/29 08:59:27;;;;;;;;;;;;;;;;;;4971500;28;19996;-57
2021/04/29 09:01:54;;;;;;;;;;;;;;;;;;4971620;28;19910;-55
2021/04/29 09:04:21;;;;;;;;;;;;;;;;;;4974164;28;20005;-55
2021/04/29 09:06:46;;;;;;;;;;;;;;;;;;4971240;28;19926;-55
2021/04/29 09:09:12;;;;;;;;;;;;;;;;;;4972235;28;19910;-55
2021/04/29 09:11:37;;;;;;;;;;;;;;;;;;4972500;28;20250;-56
2021/04/29 09:14:02;;;;;;;;;;;;;;;;;;4971304;28;19914;-57
2021/04/29 09:16:27;;;;;;;;;;;;;;;;;;4971847;28;19921;-55
2021/04/29 09:18:52;;;;;;;;;;;;;;;;;;4971984;28;19952;-54
2021/04/29 09:21:18;;;;;;;;;;;;;;;;;;4972321;28;20278;-55
2021/04/29 09:23:44;;;;;;;;;;;;;;;;;;4972418;28;20000;-56
2021/04/29 09:26:09;;;;;;;;;;;;;;;;;;4971420;28;20005;-54
2021/04/29 09:28:35;;;;;;;;;;;;;;;;;;4971915;28;19918;-55
2021/04/29 09:31:00;;;;;;;;;;;;;;;;;;4968661;28;20388;-56
2021/04/29 09:33:25;;;;;;;;;;;;;;;;;;4973168;28;20317;-55
2021/04/29 09:35:51;;;;;;;;;;;;;;;;;;4972985;28;20321;-55
2021/04/29 09:38:16;;;;;;;;;;;;;;;;;;4973326;28;19953;-55
2021/04/29 09:40:44;;;;;;;;;;;;;;;;;;4971046;28;19910;-56
2021/04/29 09:43:09;;;;;;;;;;;;;;;;;;4973273;28;19910;-54
2021/04/29 09:45:35;;;;;;;;;;;;;;;;;;4973611;28;19948;-55
2021/04/29 09:48:00;;;;;;;;;;;;;;;;;;4956087;28;19910;-55
2021/04/29 09:50:25;;;;;;;;;;;;;;;;;;4972059;28;19933;-53
2021/04/29 09:52:51;;;;;;;;;;;;;;;;;;4972840;28;19910;-53
2021/04/29 09:55:16;;;;;;;;;;;;;;;;;;4971600;28;19920;-52
2021/04/29 09:57:42;;;;;;;;;;;;;;;;;;4971307;28;19918;-55
2021/04/29 10:00:11;;;;;;;;;;;;;;;;;;4972849;28;20013;-56
2021/04/29 10:02:36;;;;;;;;;;;;;;;;;;4972867;28;20019;-55
2021/04/29 10:05:01;;;;;;;;;;;;;;;;;;4972559;28;19941;-54
2021/04/29 10:07:27;;;;;;;;;;;;;;;;;;4971321;28;19910;-56
2021/04/29 10:09:52;;;;;;;;;;;;;;;;;;4972569;28;19910;-55
2021/04/29 10:12:17;;;;;;;;;;;;;;;;;;4972867;28;19914;-56
2021/04/29 10:14:43;;;;;;;;;;;;;;;;;;4971954;28;19922;-56
2021/04/29 10:17:08;;;;;;;;;;;;;;;;;;4970821;28;20238;-55
2021/04/29 10:19:33;;;;;;;;;;;;;;;;;;4971130;28;20408;-57
2021/04/29 10:21:58;;;;;;;;;;;;;;;;;;4969725;28;19916;-55
2021/04/29 10:24:25;;;;;;;;;;;;;;;;;;4969737;28;19925;-55
2021/04/29 10:26:50;;;;;;;;;;;;;;;;;;4972125;28;20383;-56
2021/04/29 10:29:15;;;;;;;;;;;;;;;;;;4973483;28;19922;-55
2021/04/29 10:31:42;;;;;;;;;;;;;;;;;;4974860;28;20278;-56
2021/04/29 10:34:07;;;;;;;;;;;;;;;;;;4973544;28;19914;-53
2021/04/29 10:36:32;;;;;;;;;;;;;;;;;;4974760;28;20001;-54
2021/04/29 10:38:57;;;;;;;;;;;;;;;;;;4974353;28;20002;-55
2021/04/29 10:41:23;;;;;;;;;;;;;;;;;;4974879;28;19921;-58
2021/04/29 10:43:48;;;;;;;;;;;;;;;;;;4974575;28;19910;-55
2021/04/29 10:46:13;;;;;;;;;;;;;;;;;;4973453;28;21125;-54
2021/04/29 10:48:38;;;;;;;;;;;;;;;;;;4974800;28;20365;-54
2021/04/29 10:51:04;;;;;;;;;;;;;;;;;;4973062;28;20008;-55
2021/04/29 10:53:29;;;;;;;;;;;;;;;;;;4972641;28;19945;-56
2021/04/29 10:55:54;;;;;;;;;;;;;;;;;;4974257;28;19918;-54
2021/04/29 10:58:19;;;;;;;;;;;;;;;;;;4968150;28;19918;-55
2021/04/29 11:00:45;;;;;;;;;;;;;;;;;;4973242;28;19965;-54
2021/04/29 11:03:10;;;;;;;;;;;;;;;;;;4974310;28;20311;-54
2021/04/29 11:05:35;;;;;;;;;;;;;;;;;;4971480;28;19910;-56
2021/04/29 11:08:01;;;;;;;;;;;;;;;;;;4974556;28;20338;-56
2021/04/29 11:10:26;;;;;;;;;;;;;;;;;;4975661;28;20286;-55
2021/04/29 11:12:51;;;;;;;;;;;;;;;;;;4975350;28;19964;-55
2021/04/29 11:15:16;;;;;;;;;;;;;;;;;;4975166;28;19965;-57
2021/04/29 11:17:42;;;;;;;;;;;;;;;;;;4974656;28;20317;-53
2021/04/29 11:20:07;;;;;;;;;;;;;;;;;;4975427;28;20311;-55
2021/04/29 11:22:37;;;;;;;;;;;;;;;;;;4973184;28;20012;-54
2021/04/29 11:25:03;;;;;;;;;;;;;;;;;;4973905;28;19910;-53
2021/04/29 11:27:28;;;;;;;;;;;;;;;;;;4975160;28;19910;-55
2021/04/29 11:29:53;;;;;;;;;;;;;;;;;;4975116;28;20346;-54
2021/04/29 11:32:19;;;;;;;;;;;;;;;;;;4974043;28;19917;-55
2021/04/29 11:34:45;;;;;;;;;;;;;;;;;;4975427;28;20279;-54
2021/04/29 11:37:10;;;;;;;;;;;;;;;;;;4969453;28;20333;-56
2021/04/29 11:39:35;;;;;;;;;;;;;;;;;;4973693;28;20377;-56
2021/04/29 11:42:01;;;;;;;;;;;;;;;;;;4973537;28;20361;-57
2021/04/29 11:44:27;;;;;;;;;;;;;;;;;;4973229;28;19910;-53
2021/04/29 11:46:52;;;;;;;;;;;;;;;;;;4975653;28;19918;-53
2021/04/29 11:49:18;;;;;;;;;;;;;;;;;;4975299;28;20243;-52
2021/04/29 11:51:43;;;;;;;;;;;;;;;;;;4973205;28;20350;-55
2021/04/29 11:54:08;;;;;;;;;;;;;;;;;;4974786;28;20377;-54
2021/04/29 11:56:33;;;;;;;;;;;;;;;;;;4969123;28;20392;-54
2021/04/29 11:59:04;;;;;;;;;;;;;;;;;;4955305;28;19914;-55
2021/04/29 12:01:29;;;;;;;;;;;;;;;;;;4972758;28;19910;-55
2021/04/29 12:03:54;;;;;;;;;;;;;;;;;;4975095;28;20001;-54
2021/04/29 12:06:22;;;;;;;;;;;;;;;;;;4974470;28;19928;-54
2021/04/29 12:08:47;;;;;;;;;;;;;;;;;;4974300;28;19906;-57
2021/04/29 12:11:12;;;;;;;;;;;;;;;;;;4973284;28;19910;-56
2021/04/29 12:13:38;;;;;;;;;;;;;;;;;;4973890;28;20365;-54
2021/04/29 12:16:03;;;;;;;;;;;;;;;;;;4957427;28;20277;-54
2021/04/29 12:18:31;;;;;;;;;;;;;;;;;;4972853;28;19926;-55
2021/04/29 12:20:56;;;;;;;;;;;;;;;;;;4957123;28;19914;-56
2021/04/29 12:23:22;;;;;;;;;;;;;;;;;;4974030;28;19910;-55
2021/04/29 12:25:47;;;;;;;;;;;;;;;;;;4973887;28;20007;-56
2021/04/29 12:28:12;;;;;;;;;;;;;;;;;;4973634;28;20281;-57
2021/04/29 12:30:37;;;;;;;;;;;;;;;;;;4973698;28;20016;-54
2021/04/29 12:33:03;;;;;;;;;;;;;;;;;;4974115;28;20338;-56
2021/04/29 12:35:28;;;;;;;;;;;;;;;;;;4973873;28;19925;-53
2021/04/29 12:37:53;;;;;;;;;;;;;;;;;;4972334;28;19914;-56
2021/04/29 12:40:18;;;;;;;;;;;;;;;;;;4973765;28;19910;-57
2021/04/29 12:42:44;;;;;;;;;;;;;;;;;;4973585;28;20381;-57
2021/04/29 12:45:09;;;;;;;;;;;;;;;;;;4972720;28;19972;-57
2021/04/29 12:47:36;;;;;;;;;;;;;;;;;;4964717;28;20008;-55
2021/04/29 12:50:03;;;;;;;;;;;;;;;;;;4972968;28;19913;-55
2021/04/29 12:52:28;;;;;;;;;;;;;;;;;;4973464;28;19910;-57
2021/04/29 12:54:53;;;;;;;;;;;;;;;;;;4973244;28;19914;-55
2021/04/29 12:57:19;;;;;;;;;;;;;;;;;;4974265;28;20354;-56
2021/04/29 12:59:44;;;;;;;;;;;;;;;;;;4971680;28;20330;-54
2021/04/29 13:02:09;;;;;;;;;;;;;;;;;;4972582;28;19914;-55
2021/04/29 13:04:34;;;;;;;;;;;;;;;;;;4973052;28;19937;-52
2021/04/29 13:07:02;;;;;;;;;;;;;;;;;;4972869;28;20381;-55
2021/04/29 13:09:28;;;;;;;;;;;;;;;;;;4972756;28;19910;-56
2021/04/29 13:11:53;;;;;;;;;;;;;;;;;;4973212;28;19917;-55
2021/04/29 13:14:18;;;;;;;;;;;;;;;;;;4971930;28;19961;-54
2021/04/29 13:16:43;;;;;;;;;;;;;;;;;;4955720;28;19918;-54
2021/04/29 13:19:09;;;;;;;;;;;;;;;;;;4973636;28;19956;-55
2021/04/29 13:21:34;;;;;;;;;;;;;;;;;;4971750;28;20263;-55
2021/04/29 13:23:59;;;;;;;;;;;;;;;;;;4973020;28;19957;-54
2021/04/29 13:26:24;;;;;;;;;;;;;;;;;;4956236;28;19913;-53
2021/04/29 13:28:50;;;;;;;;;;;;;;;;;;4972657;28;19921;-56
2021/04/29 13:31:15;;;;;;;;;;;;;;;;;;4971935;28;19925;-55
2021/04/29 13:33:40;;;;;;;;;;;;;;;;;;4972740;28;19914;-54
2021/04/29 13:36:05;;;;;;;;;;;;;;;;;;4973427;28;19914;-55
2021/04/29 13:38:31;;;;;;;;;;;;;;;;;;4972985;28;19981;-56
2021/04/29 13:40:56;;;;;;;;;;;;;;;;;;4971900;28;19980;-55
2021/04/29 13:43:21;;;;;;;;;;;;;;;;;;4972731;28;20008;-55
2021/04/29 13:45:46;;;;;;;;;;;;;;;;;;4972996;28;20355;-54
2021/04/29 13:48:12;;;;;;;;;;;;;;;;;;4972049;28;20321;-54
2021/04/29 13:50:37;;;;;;;;;;;;;;;;;;4972853;28;19910;-52
2021/04/29 13:53:02;;;;;;;;;;;;;;;;;;4972740;28;19910;-55
2021/04/29 13:55:27;;;;;;;;;;;;;;;;;;4973302;28;20332;-57
2021/04/29 13:57:52;;;;;;;;;;;;;;;;;;4955184;28;20278;-55
2021/04/29 14:00:18;;;;;;;;;;;;;;;;;;4972976;28;19910;-56
2021/04/29 14:02:43;;;;;;;;;;;;;;;;;;4974112;28;19997;-56
2021/04/29 14:05:08;;;;;;;;;;;;;;;;;;4975702;28;19957;-55
2021/04/29 14:07:33;;;;;;;;;;;;;;;;;;4976291;28;19914;-54
2021/04/29 14:09:59;;;;;;;;;;;;;;;;;;4977103;28;20001;-55
2021/04/29 14:12:24;;;;;;;;;;;;;;;;;;4976222;28;19921;-55
2021/04/29 14:14:49;;;;;;;;;;;;;;;;;;4976548;28;20356;-54
2021/04/29 14:17:14;;;;;;;;;;;;;;;;;;4975738;28;19914;-57
2021/04/29 14:19:42;;;;;;;;;;;;;;;;;;4977143;28;20373;-57
2021/04/29 14:22:08;;;;;;;;;;;;;;;;;;4977665;28;19914;-56
2021/04/29 14:24:33;;;;;;;;;;;;;;;;;;4978075;28;20016;-56
2021/04/29 14:26:58;;;;;;;;;;;;;;;;;;4975425;28;20378;-56
2021/04/29 14:29:24;;;;;;;;;;;;;;;;;;4975199;28;20067;-54
2021/04/29 14:31:49;;;;;;;;;;;;;;;;;;4959433;28;19936;-58
2021/04/29 14:34:14;;;;;;;;;;;;;;;;;;4975800;28;20241;-54
2021/04/29 14:36:39;;;;;;;;;;;;;;;;;;4976249;28;20369;-55
2021/04/29 14:39:05;;;;;;;;;;;;;;;;;;4975676;28;19984;-56
2021/04/29 14:41:30;;;;;;;;;;;;;;;;;;4974813;28;19914;-56
2021/04/29 14:43:55;;;;;;;;;;;;;;;;;;4975694;28;20701;-56
2021/04/29 14:46:20;;;;;;;;;;;;;;;;;;4975214;28;19935;-55
2021/04/29 14:48:45;;;;;;;;;;;;;;;;;;4974426;28;19910;-56
2021/04/29 14:51:12;;;;;;;;;;;;;;;;;;4974906;28;19954;-55
2021/04/29 14:53:37;;;;;;;;;;;;;;;;;;4974032;28;19921;-54
2021/04/29 14:56:03;;;;;;;;;;;;;;;;;;4974369;28;19958;-57
2021/04/29 14:58:29;;;;;;;;;;;;;;;;;;4974245;28;20464;-55
2021/04/29 15:00:54;;;;;;;;;;;;;;;;;;4974386;28;19914;-54
2021/04/29 15:03:19;;;;;;;;;;;;;;;;;;4974765;28;20005;-54
2021/04/29 15:05:44;;;;;;;;;;;;;;;;;;4971547;28;19918;-54
2021/04/29 15:08:11;;;;;;;;;;;;;;;;;;4971362;28;20345;-55
2021/04/29 15:10:37;;;;;;;;;;;;;;;;;;4974100;28;19910;-55
2021/04/29 15:13:04;;;;;;;;;;;;;;;;;;4973053;28;20266;-55
2021/04/29 15:15:29;;;;;;;;;;;;;;;;;;4973827;28;19953;-56
2021/04/29 15:17:54;;;;;;;;;;;;;;;;;;4972376;28;20318;-54
2021/04/29 15:20:20;;;;;;;;;;;;;;;;;;4972313;28;20397;-56
2021/04/29 15:22:45;;;;;;;;;;;;;;;;;;4974729;28;20366;-55
2021/04/29 15:25:10;;;;;;;;;;;;;;;;;;4975930;28;19910;-57
2021/04/29 15:27:35;;;;;;;;;;;;;;;;;;4974272;28;19937;-54
2021/04/29 15:30:01;;;;;;;;;;;;;;;;;;4973892;28;20377;-54
2021/04/29 15:32:26;;;;;;;;;;;;;;;;;;4975576;28;19910;-55
2021/04/29 15:34:51;;;;;;;;;;;;;;;;;;4974647;28;19914;-56
2021/04/29 15:37:16;;;;;;;;;;;;;;;;;;4974569;28;19914;-56
2021/04/29 15:39:42;;;;;;;;;;;;;;;;;;4975300;28;19910;-55
2021/04/29 15:42:07;;;;;;;;;;;;;;;;;;4973960;28;19910;-53
2021/04/29 15:44:32;;;;;;;;;;;;;;;;;;4958221;28;19949;-54
2021/04/29 15:46:59;;;;;;;;;;;;;;;;;;4975236;28;20388;-56
2021/04/29 15:49:26;;;;;;;;;;;;;;;;;;4973714;28;19921;-56
2021/04/29 15:51:51;;;;;;;;;;;;;;;;;;4975048;28;20021;-56
2021/04/29 15:54:16;;;;;;;;;;;;;;;;;;4974054;28;20354;-56
2021/04/29 15:56:42;;;;;;;;;;;;;;;;;;4975845;28;20385;-56
2021/04/29 15:59:07;;;;;;;;;;;;;;;;;;4961108;28;20011;-57
2021/04/29 16:01:32;;;;;;;;;;;;;;;;;;4975730;28;20281;-53
2021/04/29 16:03:58;;;;;;;;;;;;;;;;;;4974756;28;19965;-55
2021/04/29 16:06:23;;;;;;;;;;;;;;;;;;4957254;28;19917;-54
2021/04/29 16:08:48;;;;;;;;;;;;;;;;;;4974314;28;20089;-56
2021/04/29 16:11:14;;;;;;;;;;;;;;;;;;4974880;28;19914;-54
2021/04/29 16:13:39;;;;;;;;;;;;;;;;;;4975461;28;20362;-56
2021/04/29 16:16:04;;;;;;;;;;;;;;;;;;4960466;28;20017;-56
2021/04/29 16:18:29;;;;;;;;;;;;;;;;;;4955650;29;20285;-56
2021/04/29 16:20:55;;;;;;;;;;;;;;;;;;4953522;29;19910;-55
2021/04/29 16:23:20;;;;;;;;;;;;;;;;;;4956008;29;19917;-56
2021/04/29 16:25:45;;;;;;;;;;;;;;;;;;4955244;28;19910;-51
2021/04/29 16:28:10;;;;;;;;;;;;;;;;;;4955741;29;19915;-56
2021/04/29 16:30:38;;;;;;;;;;;;;;;;;;4955648;29;20298;-56
2021/04/29 16:33:03;;;;;;;;;;;;;;;;;;4954242;29;19911;-56